<?xml version="1.0" encoding="UTF-8" standalone="no" ?>
<gpx xmlns="http://www.topografix.com/GPX/1/1" xmlns:xsi="http://www.w3.org/2001/XMLSchema-instance" xsi:schemaLocation="http://www.topografix.com/GPX/1/1 http://www.topografix.com/GPX/1/1/gpx.xsd" version="1.1" creator="VisuGPX - https://www.visugpx.com">
  <metadata>
    <name>Marche Nordique du 01/10/2013 a la Cordeliere</name>
    <desc><![CDATA[Marche Nordique du 01/10/2013 a la Cordeliere
Vercors - Lans en Vercors - Cordeliere]]></desc>
  </metadata>
  <trk>
    <name><![CDATA[2013-10-01 - MBTN - Cordeliere]]></name>
    <trkseg>
      <trkpt lat="45.12446" lon="5.5575">
        <ele>1209.96</ele>
        <time>2013-10-01T16:33:11Z</time>
      </trkpt>
      <trkpt lat="45.12447" lon="5.55749">
        <ele>1209.96</ele>
        <time>2013-10-01T16:33:26Z</time>
      </trkpt>
      <trkpt lat="45.12447" lon="5.55738">
        <ele>1208.51</ele>
        <time>2013-10-01T16:33:43Z</time>
      </trkpt>
      <trkpt lat="45.12446" lon="5.55736">
        <ele>1208.51</ele>
        <time>2013-10-01T16:34:04Z</time>
      </trkpt>
      <trkpt lat="45.12443" lon="5.5574">
        <ele>1208.51</ele>
        <time>2013-10-01T16:34:29Z</time>
      </trkpt>
      <trkpt lat="45.12439" lon="5.55755">
        <ele>1207.55</ele>
        <time>2013-10-01T16:34:52Z</time>
      </trkpt>
      <trkpt lat="45.12424" lon="5.55748">
        <ele>1207.07</ele>
        <time>2013-10-01T16:35:07Z</time>
      </trkpt>
      <trkpt lat="45.12409" lon="5.5575">
        <ele>1206.59</ele>
        <time>2013-10-01T16:35:25Z</time>
      </trkpt>
      <trkpt lat="45.12394" lon="5.55761">
        <ele>1205.15</ele>
        <time>2013-10-01T16:35:40Z</time>
      </trkpt>
      <trkpt lat="45.12378" lon="5.55761">
        <ele>1205.15</ele>
        <time>2013-10-01T16:35:55Z</time>
      </trkpt>
      <trkpt lat="45.12364" lon="5.55771">
        <ele>1206.59</ele>
        <time>2013-10-01T16:36:12Z</time>
      </trkpt>
      <trkpt lat="45.12353" lon="5.55779">
        <ele>1207.55</ele>
        <time>2013-10-01T16:36:26Z</time>
      </trkpt>
      <trkpt lat="45.12342" lon="5.55782">
        <ele>1208.51</ele>
        <time>2013-10-01T16:36:40Z</time>
      </trkpt>
      <trkpt lat="45.1234" lon="5.55781">
        <ele>1209</ele>
        <time>2013-10-01T16:36:42Z</time>
      </trkpt>
      <trkpt lat="45.1233" lon="5.55777">
        <ele>1209.48</ele>
        <time>2013-10-01T16:36:57Z</time>
      </trkpt>
      <trkpt lat="45.12311" lon="5.55768">
        <ele>1209.48</ele>
        <time>2013-10-01T16:37:12Z</time>
      </trkpt>
      <trkpt lat="45.12298" lon="5.55758">
        <ele>1209.48</ele>
        <time>2013-10-01T16:37:28Z</time>
      </trkpt>
      <trkpt lat="45.12287" lon="5.55754">
        <ele>1209.48</ele>
        <time>2013-10-01T16:37:56Z</time>
      </trkpt>
      <trkpt lat="45.12287" lon="5.55751">
        <ele>1209</ele>
        <time>2013-10-01T16:38:23Z</time>
      </trkpt>
      <trkpt lat="45.1229" lon="5.55746">
        <ele>1209</ele>
        <time>2013-10-01T16:38:47Z</time>
      </trkpt>
      <trkpt lat="45.12288" lon="5.55746">
        <ele>1208.51</ele>
        <time>2013-10-01T16:39:10Z</time>
      </trkpt>
      <trkpt lat="45.12287" lon="5.55743">
        <ele>1208.51</ele>
        <time>2013-10-01T16:39:26Z</time>
      </trkpt>
      <trkpt lat="45.1229" lon="5.5574">
        <ele>1208.51</ele>
        <time>2013-10-01T16:39:40Z</time>
      </trkpt>
      <trkpt lat="45.12277" lon="5.5574">
        <ele>1208.51</ele>
        <time>2013-10-01T16:40:00Z</time>
      </trkpt>
      <trkpt lat="45.12259" lon="5.55728">
        <ele>1206.11</ele>
        <time>2013-10-01T16:40:15Z</time>
      </trkpt>
      <trkpt lat="45.12255" lon="5.55718">
        <ele>1204.67</ele>
        <time>2013-10-01T16:40:29Z</time>
      </trkpt>
      <trkpt lat="45.12251" lon="5.55703">
        <ele>1202.75</ele>
        <time>2013-10-01T16:40:45Z</time>
      </trkpt>
      <trkpt lat="45.1225" lon="5.55686">
        <ele>1200.82</ele>
        <time>2013-10-01T16:41:01Z</time>
      </trkpt>
      <trkpt lat="45.1225" lon="5.5567">
        <ele>1197.46</ele>
        <time>2013-10-01T16:41:17Z</time>
      </trkpt>
      <trkpt lat="45.12252" lon="5.55658">
        <ele>1194.58</ele>
        <time>2013-10-01T16:41:30Z</time>
      </trkpt>
      <trkpt lat="45.12264" lon="5.5563">
        <ele>1192.17</ele>
        <time>2013-10-01T16:41:44Z</time>
      </trkpt>
      <trkpt lat="45.12267" lon="5.55623">
        <ele>1192.17</ele>
        <time>2013-10-01T16:41:46Z</time>
      </trkpt>
      <trkpt lat="45.12255" lon="5.55618">
        <ele>1191.21</ele>
        <time>2013-10-01T16:41:59Z</time>
      </trkpt>
      <trkpt lat="45.12235" lon="5.55631">
        <ele>1190.25</ele>
        <time>2013-10-01T16:42:16Z</time>
      </trkpt>
      <trkpt lat="45.12201" lon="5.55629">
        <ele>1189.77</ele>
        <time>2013-10-01T16:42:32Z</time>
      </trkpt>
      <trkpt lat="45.12181" lon="5.55648">
        <ele>1189.29</ele>
        <time>2013-10-01T16:42:48Z</time>
      </trkpt>
      <trkpt lat="45.12166" lon="5.55665">
        <ele>1190.73</ele>
        <time>2013-10-01T16:43:07Z</time>
      </trkpt>
      <trkpt lat="45.12156" lon="5.55678">
        <ele>1192.17</ele>
        <time>2013-10-01T16:43:23Z</time>
      </trkpt>
      <trkpt lat="45.12141" lon="5.55692">
        <ele>1194.09</ele>
        <time>2013-10-01T16:43:41Z</time>
      </trkpt>
      <trkpt lat="45.12128" lon="5.55699">
        <ele>1192.65</ele>
        <time>2013-10-01T16:43:57Z</time>
      </trkpt>
      <trkpt lat="45.12116" lon="5.55709">
        <ele>1191.69</ele>
        <time>2013-10-01T16:44:13Z</time>
      </trkpt>
      <trkpt lat="45.12104" lon="5.55737">
        <ele>1193.61</ele>
        <time>2013-10-01T16:44:33Z</time>
      </trkpt>
      <trkpt lat="45.1209" lon="5.55768">
        <ele>1194.09</ele>
        <time>2013-10-01T16:44:52Z</time>
      </trkpt>
      <trkpt lat="45.12072" lon="5.558">
        <ele>1194.09</ele>
        <time>2013-10-01T16:45:09Z</time>
      </trkpt>
      <trkpt lat="45.12066" lon="5.55805">
        <ele>1193.13</ele>
        <time>2013-10-01T16:45:15Z</time>
      </trkpt>
      <trkpt lat="45.12057" lon="5.55824">
        <ele>1192.65</ele>
        <time>2013-10-01T16:45:32Z</time>
      </trkpt>
      <trkpt lat="45.12052" lon="5.55849">
        <ele>1190.73</ele>
        <time>2013-10-01T16:45:49Z</time>
      </trkpt>
      <trkpt lat="45.12043" lon="5.5589">
        <ele>1189.29</ele>
        <time>2013-10-01T16:46:07Z</time>
      </trkpt>
      <trkpt lat="45.1203" lon="5.55911">
        <ele>1187.85</ele>
        <time>2013-10-01T16:46:24Z</time>
      </trkpt>
      <trkpt lat="45.12018" lon="5.55924">
        <ele>1185.92</ele>
        <time>2013-10-01T16:46:36Z</time>
      </trkpt>
      <trkpt lat="45.11999" lon="5.55946">
        <ele>1185.44</ele>
        <time>2013-10-01T16:46:54Z</time>
      </trkpt>
      <trkpt lat="45.11981" lon="5.55961">
        <ele>1184</ele>
        <time>2013-10-01T16:47:12Z</time>
      </trkpt>
      <trkpt lat="45.11962" lon="5.55974">
        <ele>1182.08</ele>
        <time>2013-10-01T16:47:29Z</time>
      </trkpt>
      <trkpt lat="45.11945" lon="5.55987">
        <ele>1180.64</ele>
        <time>2013-10-01T16:47:46Z</time>
      </trkpt>
      <trkpt lat="45.1194" lon="5.55992">
        <ele>1179.67</ele>
        <time>2013-10-01T16:47:52Z</time>
      </trkpt>
      <trkpt lat="45.11932" lon="5.55998">
        <ele>1178.71</ele>
        <time>2013-10-01T16:48:00Z</time>
      </trkpt>
      <trkpt lat="45.11917" lon="5.56009">
        <ele>1176.79</ele>
        <time>2013-10-01T16:48:16Z</time>
      </trkpt>
      <trkpt lat="45.11916" lon="5.56009">
        <ele>1176.31</ele>
        <time>2013-10-01T16:48:17Z</time>
      </trkpt>
      <trkpt lat="45.11894" lon="5.56019">
        <ele>1174.39</ele>
        <time>2013-10-01T16:48:35Z</time>
      </trkpt>
      <trkpt lat="45.11876" lon="5.56027">
        <ele>1171.02</ele>
        <time>2013-10-01T16:48:53Z</time>
      </trkpt>
      <trkpt lat="45.11862" lon="5.56039">
        <ele>1169.58</ele>
        <time>2013-10-01T16:49:10Z</time>
      </trkpt>
      <trkpt lat="45.11856" lon="5.56042">
        <ele>1169.1</ele>
        <time>2013-10-01T16:49:15Z</time>
      </trkpt>
      <trkpt lat="45.11838" lon="5.56051">
        <ele>1165.74</ele>
        <time>2013-10-01T16:49:33Z</time>
      </trkpt>
      <trkpt lat="45.11823" lon="5.5606">
        <ele>1163.33</ele>
        <time>2013-10-01T16:49:48Z</time>
      </trkpt>
      <trkpt lat="45.11804" lon="5.56069">
        <ele>1160.45</ele>
        <time>2013-10-01T16:50:04Z</time>
      </trkpt>
      <trkpt lat="45.11782" lon="5.56077">
        <ele>1157.08</ele>
        <time>2013-10-01T16:50:21Z</time>
      </trkpt>
      <trkpt lat="45.11754" lon="5.56081">
        <ele>1154.2</ele>
        <time>2013-10-01T16:50:36Z</time>
      </trkpt>
      <trkpt lat="45.11752" lon="5.56082">
        <ele>1154.2</ele>
        <time>2013-10-01T16:50:37Z</time>
      </trkpt>
      <trkpt lat="45.11727" lon="5.56102">
        <ele>1150.84</ele>
        <time>2013-10-01T16:50:57Z</time>
      </trkpt>
      <trkpt lat="45.11706" lon="5.56117">
        <ele>1148.43</ele>
        <time>2013-10-01T16:51:17Z</time>
      </trkpt>
      <trkpt lat="45.11689" lon="5.56135">
        <ele>1146.03</ele>
        <time>2013-10-01T16:51:32Z</time>
      </trkpt>
      <trkpt lat="45.1167" lon="5.56155">
        <ele>1143.63</ele>
        <time>2013-10-01T16:51:53Z</time>
      </trkpt>
      <trkpt lat="45.11657" lon="5.56177">
        <ele>1142.18</ele>
        <time>2013-10-01T16:52:08Z</time>
      </trkpt>
      <trkpt lat="45.11634" lon="5.56183">
        <ele>1139.78</ele>
        <time>2013-10-01T16:52:26Z</time>
      </trkpt>
      <trkpt lat="45.1163" lon="5.56184">
        <ele>1139.78</ele>
        <time>2013-10-01T16:52:29Z</time>
      </trkpt>
      <trkpt lat="45.11618" lon="5.56186">
        <ele>1139.3</ele>
        <time>2013-10-01T16:52:38Z</time>
      </trkpt>
      <trkpt lat="45.11596" lon="5.56183">
        <ele>1137.38</ele>
        <time>2013-10-01T16:52:55Z</time>
      </trkpt>
      <trkpt lat="45.11575" lon="5.56176">
        <ele>1135.45</ele>
        <time>2013-10-01T16:53:12Z</time>
      </trkpt>
      <trkpt lat="45.11555" lon="5.5617">
        <ele>1133.53</ele>
        <time>2013-10-01T16:53:28Z</time>
      </trkpt>
      <trkpt lat="45.11538" lon="5.56165">
        <ele>1132.09</ele>
        <time>2013-10-01T16:53:43Z</time>
      </trkpt>
      <trkpt lat="45.11524" lon="5.56155">
        <ele>1131.13</ele>
        <time>2013-10-01T16:53:57Z</time>
      </trkpt>
      <trkpt lat="45.11514" lon="5.56138">
        <ele>1130.17</ele>
        <time>2013-10-01T16:54:13Z</time>
      </trkpt>
      <trkpt lat="45.11506" lon="5.56125">
        <ele>1128.73</ele>
        <time>2013-10-01T16:54:31Z</time>
      </trkpt>
      <trkpt lat="45.11494" lon="5.56115">
        <ele>1126.8</ele>
        <time>2013-10-01T16:54:49Z</time>
      </trkpt>
      <trkpt lat="45.11476" lon="5.56106">
        <ele>1124.88</ele>
        <time>2013-10-01T16:55:06Z</time>
      </trkpt>
      <trkpt lat="45.11462" lon="5.56102">
        <ele>1122.48</ele>
        <time>2013-10-01T16:55:24Z</time>
      </trkpt>
      <trkpt lat="45.11447" lon="5.56091">
        <ele>1120.55</ele>
        <time>2013-10-01T16:55:39Z</time>
      </trkpt>
      <trkpt lat="45.11428" lon="5.5608">
        <ele>1117.67</ele>
        <time>2013-10-01T16:55:53Z</time>
      </trkpt>
      <trkpt lat="45.11418" lon="5.56075">
        <ele>1116.71</ele>
        <time>2013-10-01T16:56:00Z</time>
      </trkpt>
      <trkpt lat="45.11402" lon="5.56069">
        <ele>1114.31</ele>
        <time>2013-10-01T16:56:15Z</time>
      </trkpt>
      <trkpt lat="45.11384" lon="5.56064">
        <ele>1111.9</ele>
        <time>2013-10-01T16:56:33Z</time>
      </trkpt>
      <trkpt lat="45.11365" lon="5.56056">
        <ele>1109.5</ele>
        <time>2013-10-01T16:56:50Z</time>
      </trkpt>
      <trkpt lat="45.11347" lon="5.56043">
        <ele>1107.1</ele>
        <time>2013-10-01T16:57:07Z</time>
      </trkpt>
      <trkpt lat="45.11337" lon="5.56027">
        <ele>1104.69</ele>
        <time>2013-10-01T16:57:21Z</time>
      </trkpt>
      <trkpt lat="45.11331" lon="5.56008">
        <ele>1101.81</ele>
        <time>2013-10-01T16:57:38Z</time>
      </trkpt>
      <trkpt lat="45.11344" lon="5.56004">
        <ele>1099.89</ele>
        <time>2013-10-01T16:57:55Z</time>
      </trkpt>
      <trkpt lat="45.11366" lon="5.56001">
        <ele>1097.96</ele>
        <time>2013-10-01T16:58:15Z</time>
      </trkpt>
      <trkpt lat="45.11387" lon="5.55987">
        <ele>1094.6</ele>
        <time>2013-10-01T16:58:33Z</time>
      </trkpt>
      <trkpt lat="45.11408" lon="5.55965">
        <ele>1096.04</ele>
        <time>2013-10-01T16:58:51Z</time>
      </trkpt>
      <trkpt lat="45.11417" lon="5.55941">
        <ele>1098.44</ele>
        <time>2013-10-01T16:59:08Z</time>
      </trkpt>
      <trkpt lat="45.11421" lon="5.55918">
        <ele>1099.89</ele>
        <time>2013-10-01T16:59:27Z</time>
      </trkpt>
      <trkpt lat="45.11427" lon="5.55905">
        <ele>1101.81</ele>
        <time>2013-10-01T16:59:43Z</time>
      </trkpt>
      <trkpt lat="45.11438" lon="5.55879">
        <ele>1104.69</ele>
        <time>2013-10-01T17:00:03Z</time>
      </trkpt>
      <trkpt lat="45.11444" lon="5.55869">
        <ele>1106.13</ele>
        <time>2013-10-01T17:00:19Z</time>
      </trkpt>
      <trkpt lat="45.11442" lon="5.55866">
        <ele>1108.06</ele>
        <time>2013-10-01T17:00:33Z</time>
      </trkpt>
      <trkpt lat="45.11433" lon="5.55853">
        <ele>1111.42</ele>
        <time>2013-10-01T17:00:49Z</time>
      </trkpt>
      <trkpt lat="45.11425" lon="5.55854">
        <ele>1113.82</ele>
        <time>2013-10-01T17:01:04Z</time>
      </trkpt>
      <trkpt lat="45.11412" lon="5.55846">
        <ele>1114.79</ele>
        <time>2013-10-01T17:01:20Z</time>
      </trkpt>
      <trkpt lat="45.11398" lon="5.55832">
        <ele>1115.75</ele>
        <time>2013-10-01T17:01:35Z</time>
      </trkpt>
      <trkpt lat="45.11396" lon="5.5583">
        <ele>1115.27</ele>
        <time>2013-10-01T17:01:37Z</time>
      </trkpt>
      <trkpt lat="45.1139" lon="5.55825">
        <ele>1115.27</ele>
        <time>2013-10-01T17:01:42Z</time>
      </trkpt>
      <trkpt lat="45.11371" lon="5.55806">
        <ele>1115.27</ele>
        <time>2013-10-01T17:01:59Z</time>
      </trkpt>
      <trkpt lat="45.11355" lon="5.55792">
        <ele>1113.34</ele>
        <time>2013-10-01T17:02:17Z</time>
      </trkpt>
      <trkpt lat="45.11351" lon="5.55789">
        <ele>1113.34</ele>
        <time>2013-10-01T17:02:21Z</time>
      </trkpt>
      <trkpt lat="45.11337" lon="5.55771">
        <ele>1110.94</ele>
        <time>2013-10-01T17:02:37Z</time>
      </trkpt>
      <trkpt lat="45.11331" lon="5.55759">
        <ele>1109.98</ele>
        <time>2013-10-01T17:02:45Z</time>
      </trkpt>
      <trkpt lat="45.11322" lon="5.55739">
        <ele>1109.5</ele>
        <time>2013-10-01T17:02:57Z</time>
      </trkpt>
      <trkpt lat="45.11309" lon="5.5571">
        <ele>1107.58</ele>
        <time>2013-10-01T17:03:14Z</time>
      </trkpt>
      <trkpt lat="45.11306" lon="5.55705">
        <ele>1107.1</ele>
        <time>2013-10-01T17:03:17Z</time>
      </trkpt>
      <trkpt lat="45.11298" lon="5.55681">
        <ele>1104.21</ele>
        <time>2013-10-01T17:03:35Z</time>
      </trkpt>
      <trkpt lat="45.11289" lon="5.55666">
        <ele>1102.77</ele>
        <time>2013-10-01T17:03:49Z</time>
      </trkpt>
      <trkpt lat="45.11278" lon="5.55653">
        <ele>1101.81</ele>
        <time>2013-10-01T17:04:08Z</time>
      </trkpt>
      <trkpt lat="45.11263" lon="5.55658">
        <ele>1101.81</ele>
        <time>2013-10-01T17:04:23Z</time>
      </trkpt>
      <trkpt lat="45.11259" lon="5.5566">
        <ele>1103.25</ele>
        <time>2013-10-01T17:04:27Z</time>
      </trkpt>
      <trkpt lat="45.11252" lon="5.55663">
        <ele>1105.65</ele>
        <time>2013-10-01T17:04:40Z</time>
      </trkpt>
      <trkpt lat="45.1124" lon="5.55639">
        <ele>1108.54</ele>
        <time>2013-10-01T17:04:56Z</time>
      </trkpt>
      <trkpt lat="45.1123" lon="5.55627">
        <ele>1111.42</ele>
        <time>2013-10-01T17:05:11Z</time>
      </trkpt>
      <trkpt lat="45.11223" lon="5.55617">
        <ele>1113.34</ele>
        <time>2013-10-01T17:05:24Z</time>
      </trkpt>
      <trkpt lat="45.11218" lon="5.55615">
        <ele>1113.82</ele>
        <time>2013-10-01T17:05:29Z</time>
      </trkpt>
      <trkpt lat="45.11203" lon="5.55607">
        <ele>1114.79</ele>
        <time>2013-10-01T17:05:45Z</time>
      </trkpt>
      <trkpt lat="45.11195" lon="5.556">
        <ele>1115.27</ele>
        <time>2013-10-01T17:05:56Z</time>
      </trkpt>
      <trkpt lat="45.11181" lon="5.55587">
        <ele>1116.23</ele>
        <time>2013-10-01T17:06:13Z</time>
      </trkpt>
      <trkpt lat="45.11176" lon="5.5558">
        <ele>1117.67</ele>
        <time>2013-10-01T17:06:26Z</time>
      </trkpt>
      <trkpt lat="45.1118" lon="5.55573">
        <ele>1118.15</ele>
        <time>2013-10-01T17:06:51Z</time>
      </trkpt>
      <trkpt lat="45.1119" lon="5.5556">
        <ele>1120.55</ele>
        <time>2013-10-01T17:07:12Z</time>
      </trkpt>
      <trkpt lat="45.11205" lon="5.55544">
        <ele>1123.44</ele>
        <time>2013-10-01T17:07:31Z</time>
      </trkpt>
      <trkpt lat="45.11219" lon="5.55529">
        <ele>1124.88</ele>
        <time>2013-10-01T17:07:45Z</time>
      </trkpt>
      <trkpt lat="45.11229" lon="5.55514">
        <ele>1127.28</ele>
        <time>2013-10-01T17:08:01Z</time>
      </trkpt>
      <trkpt lat="45.11241" lon="5.55495">
        <ele>1128.73</ele>
        <time>2013-10-01T17:08:16Z</time>
      </trkpt>
      <trkpt lat="45.11248" lon="5.5548">
        <ele>1130.65</ele>
        <time>2013-10-01T17:08:28Z</time>
      </trkpt>
      <trkpt lat="45.11251" lon="5.55471">
        <ele>1132.09</ele>
        <time>2013-10-01T17:08:35Z</time>
      </trkpt>
      <trkpt lat="45.1125" lon="5.55458">
        <ele>1134.01</ele>
        <time>2013-10-01T17:08:46Z</time>
      </trkpt>
      <trkpt lat="45.11242" lon="5.55446">
        <ele>1136.42</ele>
        <time>2013-10-01T17:08:59Z</time>
      </trkpt>
      <trkpt lat="45.11234" lon="5.55438">
        <ele>1138.82</ele>
        <time>2013-10-01T17:09:15Z</time>
      </trkpt>
      <trkpt lat="45.11226" lon="5.5543">
        <ele>1140.74</ele>
        <time>2013-10-01T17:09:26Z</time>
      </trkpt>
      <trkpt lat="45.11217" lon="5.55421">
        <ele>1142.18</ele>
        <time>2013-10-01T17:09:35Z</time>
      </trkpt>
      <trkpt lat="45.11196" lon="5.55404">
        <ele>1144.59</ele>
        <time>2013-10-01T17:09:49Z</time>
      </trkpt>
      <trkpt lat="45.11179" lon="5.55383">
        <ele>1146.51</ele>
        <time>2013-10-01T17:10:06Z</time>
      </trkpt>
      <trkpt lat="45.11167" lon="5.55364">
        <ele>1148.43</ele>
        <time>2013-10-01T17:10:23Z</time>
      </trkpt>
      <trkpt lat="45.11156" lon="5.55347">
        <ele>1150.35</ele>
        <time>2013-10-01T17:10:38Z</time>
      </trkpt>
      <trkpt lat="45.11142" lon="5.55321">
        <ele>1151.8</ele>
        <time>2013-10-01T17:10:52Z</time>
      </trkpt>
      <trkpt lat="45.11139" lon="5.55316">
        <ele>1151.8</ele>
        <time>2013-10-01T17:10:54Z</time>
      </trkpt>
      <trkpt lat="45.11135" lon="5.55309">
        <ele>1152.76</ele>
        <time>2013-10-01T17:10:58Z</time>
      </trkpt>
      <trkpt lat="45.11134" lon="5.55307">
        <ele>1152.28</ele>
        <time>2013-10-01T17:11:00Z</time>
      </trkpt>
      <trkpt lat="45.11131" lon="5.55303">
        <ele>1152.76</ele>
        <time>2013-10-01T17:11:02Z</time>
      </trkpt>
      <trkpt lat="45.11119" lon="5.55289">
        <ele>1154.2</ele>
        <time>2013-10-01T17:11:13Z</time>
      </trkpt>
      <trkpt lat="45.11106" lon="5.5527">
        <ele>1156.12</ele>
        <time>2013-10-01T17:11:28Z</time>
      </trkpt>
      <trkpt lat="45.11099" lon="5.5526">
        <ele>1157.08</ele>
        <time>2013-10-01T17:11:34Z</time>
      </trkpt>
      <trkpt lat="45.11098" lon="5.55259">
        <ele>1157.08</ele>
        <time>2013-10-01T17:11:35Z</time>
      </trkpt>
      <trkpt lat="45.11086" lon="5.55246">
        <ele>1158.53</ele>
        <time>2013-10-01T17:11:49Z</time>
      </trkpt>
      <trkpt lat="45.11075" lon="5.55227">
        <ele>1160.93</ele>
        <time>2013-10-01T17:12:04Z</time>
      </trkpt>
      <trkpt lat="45.11063" lon="5.55213">
        <ele>1163.81</ele>
        <time>2013-10-01T17:12:16Z</time>
      </trkpt>
      <trkpt lat="45.11055" lon="5.552">
        <ele>1165.74</ele>
        <time>2013-10-01T17:12:27Z</time>
      </trkpt>
      <trkpt lat="45.11044" lon="5.55178">
        <ele>1168.62</ele>
        <time>2013-10-01T17:12:41Z</time>
      </trkpt>
      <trkpt lat="45.11025" lon="5.55158">
        <ele>1170.06</ele>
        <time>2013-10-01T17:12:53Z</time>
      </trkpt>
      <trkpt lat="45.11022" lon="5.5515">
        <ele>1171.5</ele>
        <time>2013-10-01T17:12:58Z</time>
      </trkpt>
      <trkpt lat="45.11013" lon="5.55138">
        <ele>1172.47</ele>
        <time>2013-10-01T17:13:10Z</time>
      </trkpt>
      <trkpt lat="45.11008" lon="5.55138">
        <ele>1173.43</ele>
        <time>2013-10-01T17:13:14Z</time>
      </trkpt>
      <trkpt lat="45.10993" lon="5.55124">
        <ele>1175.35</ele>
        <time>2013-10-01T17:13:27Z</time>
      </trkpt>
      <trkpt lat="45.10991" lon="5.55121">
        <ele>1175.83</ele>
        <time>2013-10-01T17:13:29Z</time>
      </trkpt>
      <trkpt lat="45.10986" lon="5.55116">
        <ele>1176.79</ele>
        <time>2013-10-01T17:13:35Z</time>
      </trkpt>
      <trkpt lat="45.10981" lon="5.55109">
        <ele>1176.79</ele>
        <time>2013-10-01T17:13:39Z</time>
      </trkpt>
      <trkpt lat="45.1097" lon="5.551">
        <ele>1178.23</ele>
        <time>2013-10-01T17:13:50Z</time>
      </trkpt>
      <trkpt lat="45.10959" lon="5.55088">
        <ele>1180.16</ele>
        <time>2013-10-01T17:14:01Z</time>
      </trkpt>
      <trkpt lat="45.10945" lon="5.55074">
        <ele>1182.08</ele>
        <time>2013-10-01T17:14:15Z</time>
      </trkpt>
      <trkpt lat="45.10933" lon="5.55068">
        <ele>1183.04</ele>
        <time>2013-10-01T17:14:27Z</time>
      </trkpt>
      <trkpt lat="45.10925" lon="5.5506">
        <ele>1184</ele>
        <time>2013-10-01T17:14:37Z</time>
      </trkpt>
      <trkpt lat="45.10916" lon="5.55051">
        <ele>1185.92</ele>
        <time>2013-10-01T17:14:49Z</time>
      </trkpt>
      <trkpt lat="45.10904" lon="5.55032">
        <ele>1187.85</ele>
        <time>2013-10-01T17:15:03Z</time>
      </trkpt>
      <trkpt lat="45.10903" lon="5.5503">
        <ele>1188.33</ele>
        <time>2013-10-01T17:15:04Z</time>
      </trkpt>
      <trkpt lat="45.10895" lon="5.55009">
        <ele>1190.73</ele>
        <time>2013-10-01T17:15:17Z</time>
      </trkpt>
      <trkpt lat="45.10886" lon="5.54997">
        <ele>1192.65</ele>
        <time>2013-10-01T17:15:28Z</time>
      </trkpt>
      <trkpt lat="45.10878" lon="5.54989">
        <ele>1194.58</ele>
        <time>2013-10-01T17:15:37Z</time>
      </trkpt>
      <trkpt lat="45.10867" lon="5.54974">
        <ele>1196.5</ele>
        <time>2013-10-01T17:15:50Z</time>
      </trkpt>
      <trkpt lat="45.10856" lon="5.54963">
        <ele>1198.9</ele>
        <time>2013-10-01T17:16:03Z</time>
      </trkpt>
      <trkpt lat="45.10846" lon="5.5495">
        <ele>1200.34</ele>
        <time>2013-10-01T17:16:16Z</time>
      </trkpt>
      <trkpt lat="45.10838" lon="5.5493">
        <ele>1202.27</ele>
        <time>2013-10-01T17:16:30Z</time>
      </trkpt>
      <trkpt lat="45.10826" lon="5.54914">
        <ele>1203.71</ele>
        <time>2013-10-01T17:16:42Z</time>
      </trkpt>
      <trkpt lat="45.10815" lon="5.54901">
        <ele>1205.15</ele>
        <time>2013-10-01T17:16:53Z</time>
      </trkpt>
      <trkpt lat="45.10805" lon="5.54884">
        <ele>1206.59</ele>
        <time>2013-10-01T17:17:07Z</time>
      </trkpt>
      <trkpt lat="45.10781" lon="5.54857">
        <ele>1208.51</ele>
        <time>2013-10-01T17:17:17Z</time>
      </trkpt>
      <trkpt lat="45.10772" lon="5.54848">
        <ele>1209</ele>
        <time>2013-10-01T17:17:32Z</time>
      </trkpt>
      <trkpt lat="45.10767" lon="5.54845">
        <ele>1209.48</ele>
        <time>2013-10-01T17:17:47Z</time>
      </trkpt>
      <trkpt lat="45.10773" lon="5.54851">
        <ele>1209.96</ele>
        <time>2013-10-01T17:18:05Z</time>
      </trkpt>
      <trkpt lat="45.10771" lon="5.54852">
        <ele>1209.96</ele>
        <time>2013-10-01T17:18:27Z</time>
      </trkpt>
      <trkpt lat="45.10772" lon="5.54856">
        <ele>1209.96</ele>
        <time>2013-10-01T17:18:43Z</time>
      </trkpt>
      <trkpt lat="45.10775" lon="5.54857">
        <ele>1210.44</ele>
        <time>2013-10-01T17:19:09Z</time>
      </trkpt>
      <trkpt lat="45.10777" lon="5.54856">
        <ele>1210.44</ele>
        <time>2013-10-01T17:19:37Z</time>
      </trkpt>
      <trkpt lat="45.10778" lon="5.54855">
        <ele>1210.44</ele>
        <time>2013-10-01T17:20:06Z</time>
      </trkpt>
      <trkpt lat="45.1078" lon="5.54859">
        <ele>1210.92</ele>
        <time>2013-10-01T17:20:38Z</time>
      </trkpt>
      <trkpt lat="45.10782" lon="5.5485">
        <ele>1210.92</ele>
        <time>2013-10-01T17:21:05Z</time>
      </trkpt>
      <trkpt lat="45.10779" lon="5.54829">
        <ele>1214.28</ele>
        <time>2013-10-01T17:21:15Z</time>
      </trkpt>
      <trkpt lat="45.1078" lon="5.54809">
        <ele>1217.17</ele>
        <time>2013-10-01T17:21:31Z</time>
      </trkpt>
      <trkpt lat="45.10784" lon="5.54798">
        <ele>1219.09</ele>
        <time>2013-10-01T17:21:42Z</time>
      </trkpt>
      <trkpt lat="45.10786" lon="5.54794">
        <ele>1219.57</ele>
        <time>2013-10-01T17:21:45Z</time>
      </trkpt>
      <trkpt lat="45.10799" lon="5.54786">
        <ele>1221.01</ele>
        <time>2013-10-01T17:21:58Z</time>
      </trkpt>
      <trkpt lat="45.10804" lon="5.54783">
        <ele>1221.97</ele>
        <time>2013-10-01T17:22:03Z</time>
      </trkpt>
      <trkpt lat="45.10806" lon="5.54783">
        <ele>1221.97</ele>
        <time>2013-10-01T17:22:05Z</time>
      </trkpt>
      <trkpt lat="45.1082" lon="5.54776">
        <ele>1223.42</ele>
        <time>2013-10-01T17:22:17Z</time>
      </trkpt>
      <trkpt lat="45.10829" lon="5.54771">
        <ele>1223.9</ele>
        <time>2013-10-01T17:22:27Z</time>
      </trkpt>
      <trkpt lat="45.10836" lon="5.54766">
        <ele>1224.38</ele>
        <time>2013-10-01T17:22:40Z</time>
      </trkpt>
      <trkpt lat="45.10847" lon="5.54769">
        <ele>1225.34</ele>
        <time>2013-10-01T17:22:53Z</time>
      </trkpt>
      <trkpt lat="45.10858" lon="5.54772">
        <ele>1225.82</ele>
        <time>2013-10-01T17:23:03Z</time>
      </trkpt>
      <trkpt lat="45.10866" lon="5.54775">
        <ele>1226.3</ele>
        <time>2013-10-01T17:23:10Z</time>
      </trkpt>
      <trkpt lat="45.10878" lon="5.54774">
        <ele>1227.74</ele>
        <time>2013-10-01T17:23:21Z</time>
      </trkpt>
      <trkpt lat="45.10882" lon="5.54774">
        <ele>1227.74</ele>
        <time>2013-10-01T17:23:24Z</time>
      </trkpt>
      <trkpt lat="45.10886" lon="5.54776">
        <ele>1227.74</ele>
        <time>2013-10-01T17:23:27Z</time>
      </trkpt>
      <trkpt lat="45.1089" lon="5.54777">
        <ele>1228.22</ele>
        <time>2013-10-01T17:23:30Z</time>
      </trkpt>
      <trkpt lat="45.10903" lon="5.54778">
        <ele>1228.7</ele>
        <time>2013-10-01T17:23:42Z</time>
      </trkpt>
      <trkpt lat="45.10917" lon="5.54777">
        <ele>1229.66</ele>
        <time>2013-10-01T17:23:55Z</time>
      </trkpt>
      <trkpt lat="45.1093" lon="5.54777">
        <ele>1229.66</ele>
        <time>2013-10-01T17:24:06Z</time>
      </trkpt>
      <trkpt lat="45.10934" lon="5.54778">
        <ele>1230.14</ele>
        <time>2013-10-01T17:24:09Z</time>
      </trkpt>
      <trkpt lat="45.10941" lon="5.54776">
        <ele>1230.14</ele>
        <time>2013-10-01T17:24:15Z</time>
      </trkpt>
      <trkpt lat="45.10955" lon="5.54776">
        <ele>1231.11</ele>
        <time>2013-10-01T17:24:26Z</time>
      </trkpt>
      <trkpt lat="45.10969" lon="5.54779">
        <ele>1232.07</ele>
        <time>2013-10-01T17:24:38Z</time>
      </trkpt>
      <trkpt lat="45.1097" lon="5.54778">
        <ele>1232.07</ele>
        <time>2013-10-01T17:24:39Z</time>
      </trkpt>
      <trkpt lat="45.10973" lon="5.54779">
        <ele>1232.07</ele>
        <time>2013-10-01T17:24:41Z</time>
      </trkpt>
      <trkpt lat="45.10977" lon="5.54778">
        <ele>1232.07</ele>
        <time>2013-10-01T17:24:44Z</time>
      </trkpt>
      <trkpt lat="45.10983" lon="5.54778">
        <ele>1232.55</ele>
        <time>2013-10-01T17:24:49Z</time>
      </trkpt>
      <trkpt lat="45.10993" lon="5.54781">
        <ele>1233.51</ele>
        <time>2013-10-01T17:24:56Z</time>
      </trkpt>
      <trkpt lat="45.11009" lon="5.54786">
        <ele>1235.43</ele>
        <time>2013-10-01T17:25:11Z</time>
      </trkpt>
      <trkpt lat="45.11011" lon="5.54786">
        <ele>1235.43</ele>
        <time>2013-10-01T17:25:12Z</time>
      </trkpt>
      <trkpt lat="45.11025" lon="5.54785">
        <ele>1236.87</ele>
        <time>2013-10-01T17:25:24Z</time>
      </trkpt>
      <trkpt lat="45.11036" lon="5.54785">
        <ele>1237.83</ele>
        <time>2013-10-01T17:25:33Z</time>
      </trkpt>
      <trkpt lat="45.11039" lon="5.54786">
        <ele>1238.32</ele>
        <time>2013-10-01T17:25:35Z</time>
      </trkpt>
      <trkpt lat="45.11047" lon="5.54785">
        <ele>1238.8</ele>
        <time>2013-10-01T17:25:42Z</time>
      </trkpt>
      <trkpt lat="45.11054" lon="5.54784">
        <ele>1239.76</ele>
        <time>2013-10-01T17:25:48Z</time>
      </trkpt>
      <trkpt lat="45.11065" lon="5.5478">
        <ele>1240.72</ele>
        <time>2013-10-01T17:25:59Z</time>
      </trkpt>
      <trkpt lat="45.1108" lon="5.54776">
        <ele>1241.68</ele>
        <time>2013-10-01T17:26:10Z</time>
      </trkpt>
      <trkpt lat="45.11088" lon="5.54775">
        <ele>1242.16</ele>
        <time>2013-10-01T17:26:16Z</time>
      </trkpt>
      <trkpt lat="45.11104" lon="5.54777">
        <ele>1243.12</ele>
        <time>2013-10-01T17:26:28Z</time>
      </trkpt>
      <trkpt lat="45.11105" lon="5.54778">
        <ele>1243.12</ele>
        <time>2013-10-01T17:26:30Z</time>
      </trkpt>
      <trkpt lat="45.11112" lon="5.5478">
        <ele>1243.6</ele>
        <time>2013-10-01T17:26:36Z</time>
      </trkpt>
      <trkpt lat="45.11124" lon="5.54786">
        <ele>1244.08</ele>
        <time>2013-10-01T17:26:49Z</time>
      </trkpt>
      <trkpt lat="45.11138" lon="5.54791">
        <ele>1245.04</ele>
        <time>2013-10-01T17:27:01Z</time>
      </trkpt>
      <trkpt lat="45.11155" lon="5.54796">
        <ele>1245.53</ele>
        <time>2013-10-01T17:27:16Z</time>
      </trkpt>
      <trkpt lat="45.11161" lon="5.54796">
        <ele>1245.53</ele>
        <time>2013-10-01T17:27:20Z</time>
      </trkpt>
      <trkpt lat="45.11178" lon="5.54799">
        <ele>1246.01</ele>
        <time>2013-10-01T17:27:33Z</time>
      </trkpt>
      <trkpt lat="45.11182" lon="5.54799">
        <ele>1246.49</ele>
        <time>2013-10-01T17:27:37Z</time>
      </trkpt>
      <trkpt lat="45.11199" lon="5.54803">
        <ele>1247.93</ele>
        <time>2013-10-01T17:27:51Z</time>
      </trkpt>
      <trkpt lat="45.11214" lon="5.54802">
        <ele>1248.41</ele>
        <time>2013-10-01T17:28:04Z</time>
      </trkpt>
      <trkpt lat="45.11225" lon="5.54801">
        <ele>1249.85</ele>
        <time>2013-10-01T17:28:13Z</time>
      </trkpt>
      <trkpt lat="45.11232" lon="5.54802">
        <ele>1250.33</ele>
        <time>2013-10-01T17:28:18Z</time>
      </trkpt>
      <trkpt lat="45.11241" lon="5.54801">
        <ele>1250.81</ele>
        <time>2013-10-01T17:28:25Z</time>
      </trkpt>
      <trkpt lat="45.11244" lon="5.54801">
        <ele>1250.81</ele>
        <time>2013-10-01T17:28:27Z</time>
      </trkpt>
      <trkpt lat="45.11246" lon="5.54802">
        <ele>1251.29</ele>
        <time>2013-10-01T17:28:29Z</time>
      </trkpt>
      <trkpt lat="45.11261" lon="5.54799">
        <ele>1252.25</ele>
        <time>2013-10-01T17:28:41Z</time>
      </trkpt>
      <trkpt lat="45.11274" lon="5.54797">
        <ele>1252.74</ele>
        <time>2013-10-01T17:28:53Z</time>
      </trkpt>
      <trkpt lat="45.11278" lon="5.54796">
        <ele>1253.22</ele>
        <time>2013-10-01T17:28:56Z</time>
      </trkpt>
      <trkpt lat="45.1129" lon="5.54794">
        <ele>1254.18</ele>
        <time>2013-10-01T17:29:06Z</time>
      </trkpt>
      <trkpt lat="45.11291" lon="5.54794">
        <ele>1254.18</ele>
        <time>2013-10-01T17:29:07Z</time>
      </trkpt>
      <trkpt lat="45.11296" lon="5.54796">
        <ele>1254.66</ele>
        <time>2013-10-01T17:29:18Z</time>
      </trkpt>
      <trkpt lat="45.11295" lon="5.54796">
        <ele>1254.66</ele>
        <time>2013-10-01T17:29:19Z</time>
      </trkpt>
      <trkpt lat="45.11288" lon="5.548">
        <ele>1254.66</ele>
        <time>2013-10-01T17:29:26Z</time>
      </trkpt>
      <trkpt lat="45.11283" lon="5.54799">
        <ele>1255.14</ele>
        <time>2013-10-01T17:29:30Z</time>
      </trkpt>
      <trkpt lat="45.11267" lon="5.54802">
        <ele>1253.22</ele>
        <time>2013-10-01T17:29:42Z</time>
      </trkpt>
      <trkpt lat="45.11262" lon="5.54803">
        <ele>1252.74</ele>
        <time>2013-10-01T17:29:47Z</time>
      </trkpt>
      <trkpt lat="45.11251" lon="5.54805">
        <ele>1252.74</ele>
        <time>2013-10-01T17:29:56Z</time>
      </trkpt>
      <trkpt lat="45.11239" lon="5.54804">
        <ele>1251.77</ele>
        <time>2013-10-01T17:30:06Z</time>
      </trkpt>
      <trkpt lat="45.11229" lon="5.54804">
        <ele>1251.29</ele>
        <time>2013-10-01T17:30:14Z</time>
      </trkpt>
      <trkpt lat="45.11222" lon="5.54817">
        <ele>1250.81</ele>
        <time>2013-10-01T17:30:23Z</time>
      </trkpt>
      <trkpt lat="45.11218" lon="5.54836">
        <ele>1249.85</ele>
        <time>2013-10-01T17:30:35Z</time>
      </trkpt>
      <trkpt lat="45.11213" lon="5.54859">
        <ele>1246.49</ele>
        <time>2013-10-01T17:30:49Z</time>
      </trkpt>
      <trkpt lat="45.11213" lon="5.54861">
        <ele>1246.49</ele>
        <time>2013-10-01T17:30:50Z</time>
      </trkpt>
      <trkpt lat="45.11212" lon="5.54874">
        <ele>1243.6</ele>
        <time>2013-10-01T17:31:01Z</time>
      </trkpt>
      <trkpt lat="45.11207" lon="5.54901">
        <ele>1239.76</ele>
        <time>2013-10-01T17:31:15Z</time>
      </trkpt>
      <trkpt lat="45.11206" lon="5.54917">
        <ele>1236.87</ele>
        <time>2013-10-01T17:31:25Z</time>
      </trkpt>
      <trkpt lat="45.11205" lon="5.54938">
        <ele>1233.99</ele>
        <time>2013-10-01T17:31:40Z</time>
      </trkpt>
      <trkpt lat="45.11207" lon="5.54961">
        <ele>1230.62</ele>
        <time>2013-10-01T17:31:55Z</time>
      </trkpt>
      <trkpt lat="45.11217" lon="5.54979">
        <ele>1227.74</ele>
        <time>2013-10-01T17:32:11Z</time>
      </trkpt>
      <trkpt lat="45.1123" lon="5.54991">
        <ele>1224.86</ele>
        <time>2013-10-01T17:32:27Z</time>
      </trkpt>
      <trkpt lat="45.1124" lon="5.54993">
        <ele>1221.49</ele>
        <time>2013-10-01T17:32:39Z</time>
      </trkpt>
      <trkpt lat="45.11254" lon="5.54998">
        <ele>1218.13</ele>
        <time>2013-10-01T17:32:53Z</time>
      </trkpt>
      <trkpt lat="45.11267" lon="5.55003">
        <ele>1214.28</ele>
        <time>2013-10-01T17:33:08Z</time>
      </trkpt>
      <trkpt lat="45.1128" lon="5.55001">
        <ele>1214.28</ele>
        <time>2013-10-01T17:33:28Z</time>
      </trkpt>
      <trkpt lat="45.11292" lon="5.54998">
        <ele>1214.28</ele>
        <time>2013-10-01T17:33:44Z</time>
      </trkpt>
      <trkpt lat="45.11303" lon="5.54988">
        <ele>1217.17</ele>
        <time>2013-10-01T17:33:59Z</time>
      </trkpt>
      <trkpt lat="45.11317" lon="5.54978">
        <ele>1220.53</ele>
        <time>2013-10-01T17:34:16Z</time>
      </trkpt>
      <trkpt lat="45.11324" lon="5.54983">
        <ele>1222.93</ele>
        <time>2013-10-01T17:34:33Z</time>
      </trkpt>
      <trkpt lat="45.11335" lon="5.54987">
        <ele>1224.86</ele>
        <time>2013-10-01T17:34:48Z</time>
      </trkpt>
      <trkpt lat="45.11345" lon="5.54984">
        <ele>1226.78</ele>
        <time>2013-10-01T17:35:02Z</time>
      </trkpt>
      <trkpt lat="45.11363" lon="5.54979">
        <ele>1228.22</ele>
        <time>2013-10-01T17:35:20Z</time>
      </trkpt>
      <trkpt lat="45.11367" lon="5.54976">
        <ele>1230.14</ele>
        <time>2013-10-01T17:35:26Z</time>
      </trkpt>
      <trkpt lat="45.11377" lon="5.54974">
        <ele>1231.11</ele>
        <time>2013-10-01T17:35:41Z</time>
      </trkpt>
      <trkpt lat="45.11388" lon="5.54969">
        <ele>1233.03</ele>
        <time>2013-10-01T17:35:55Z</time>
      </trkpt>
      <trkpt lat="45.114" lon="5.54962">
        <ele>1233.99</ele>
        <time>2013-10-01T17:36:09Z</time>
      </trkpt>
      <trkpt lat="45.11409" lon="5.54958">
        <ele>1234.95</ele>
        <time>2013-10-01T17:36:20Z</time>
      </trkpt>
      <trkpt lat="45.11424" lon="5.54954">
        <ele>1236.39</ele>
        <time>2013-10-01T17:36:36Z</time>
      </trkpt>
      <trkpt lat="45.1143" lon="5.54953">
        <ele>1236.87</ele>
        <time>2013-10-01T17:36:44Z</time>
      </trkpt>
      <trkpt lat="45.11437" lon="5.54952">
        <ele>1237.83</ele>
        <time>2013-10-01T17:36:51Z</time>
      </trkpt>
      <trkpt lat="45.11448" lon="5.54957">
        <ele>1237.83</ele>
        <time>2013-10-01T17:37:05Z</time>
      </trkpt>
      <trkpt lat="45.11459" lon="5.5496">
        <ele>1238.32</ele>
        <time>2013-10-01T17:37:18Z</time>
      </trkpt>
      <trkpt lat="45.11467" lon="5.54958">
        <ele>1239.28</ele>
        <time>2013-10-01T17:37:28Z</time>
      </trkpt>
      <trkpt lat="45.11478" lon="5.54955">
        <ele>1240.24</ele>
        <time>2013-10-01T17:37:42Z</time>
      </trkpt>
      <trkpt lat="45.11493" lon="5.54953">
        <ele>1240.72</ele>
        <time>2013-10-01T17:37:58Z</time>
      </trkpt>
      <trkpt lat="45.11507" lon="5.54948">
        <ele>1241.2</ele>
        <time>2013-10-01T17:38:13Z</time>
      </trkpt>
      <trkpt lat="45.11523" lon="5.54942">
        <ele>1241.68</ele>
        <time>2013-10-01T17:38:27Z</time>
      </trkpt>
      <trkpt lat="45.11534" lon="5.54934">
        <ele>1241.68</ele>
        <time>2013-10-01T17:38:40Z</time>
      </trkpt>
      <trkpt lat="45.11552" lon="5.54929">
        <ele>1242.16</ele>
        <time>2013-10-01T17:38:56Z</time>
      </trkpt>
      <trkpt lat="45.11561" lon="5.54926">
        <ele>1243.12</ele>
        <time>2013-10-01T17:39:07Z</time>
      </trkpt>
      <trkpt lat="45.11572" lon="5.54926">
        <ele>1244.08</ele>
        <time>2013-10-01T17:39:17Z</time>
      </trkpt>
      <trkpt lat="45.11584" lon="5.54927">
        <ele>1245.04</ele>
        <time>2013-10-01T17:39:29Z</time>
      </trkpt>
      <trkpt lat="45.11592" lon="5.54927">
        <ele>1245.53</ele>
        <time>2013-10-01T17:39:41Z</time>
      </trkpt>
      <trkpt lat="45.11597" lon="5.54929">
        <ele>1246.01</ele>
        <time>2013-10-01T17:40:16Z</time>
      </trkpt>
      <trkpt lat="45.11599" lon="5.5493">
        <ele>1246.01</ele>
        <time>2013-10-01T17:40:35Z</time>
      </trkpt>
      <trkpt lat="45.11601" lon="5.54929">
        <ele>1246.01</ele>
        <time>2013-10-01T17:41:00Z</time>
      </trkpt>
      <trkpt lat="45.11599" lon="5.54933">
        <ele>1246.01</ele>
        <time>2013-10-01T17:41:32Z</time>
      </trkpt>
      <trkpt lat="45.11593" lon="5.54953">
        <ele>1244.56</ele>
        <time>2013-10-01T17:41:49Z</time>
      </trkpt>
      <trkpt lat="45.11594" lon="5.54971">
        <ele>1243.12</ele>
        <time>2013-10-01T17:42:06Z</time>
      </trkpt>
      <trkpt lat="45.11601" lon="5.5499">
        <ele>1241.2</ele>
        <time>2013-10-01T17:42:23Z</time>
      </trkpt>
      <trkpt lat="45.11603" lon="5.54997">
        <ele>1240.24</ele>
        <time>2013-10-01T17:42:28Z</time>
      </trkpt>
      <trkpt lat="45.11608" lon="5.55013">
        <ele>1239.28</ele>
        <time>2013-10-01T17:42:41Z</time>
      </trkpt>
      <trkpt lat="45.11612" lon="5.55031">
        <ele>1239.28</ele>
        <time>2013-10-01T17:42:54Z</time>
      </trkpt>
      <trkpt lat="45.11615" lon="5.55057">
        <ele>1237.83</ele>
        <time>2013-10-01T17:43:10Z</time>
      </trkpt>
      <trkpt lat="45.11618" lon="5.55075">
        <ele>1236.87</ele>
        <time>2013-10-01T17:43:24Z</time>
      </trkpt>
      <trkpt lat="45.11621" lon="5.55097">
        <ele>1235.43</ele>
        <time>2013-10-01T17:43:38Z</time>
      </trkpt>
      <trkpt lat="45.11624" lon="5.5512">
        <ele>1233.03</ele>
        <time>2013-10-01T17:43:53Z</time>
      </trkpt>
      <trkpt lat="45.11626" lon="5.5513">
        <ele>1232.07</ele>
        <time>2013-10-01T17:44:01Z</time>
      </trkpt>
      <trkpt lat="45.11633" lon="5.55152">
        <ele>1230.14</ele>
        <time>2013-10-01T17:44:15Z</time>
      </trkpt>
      <trkpt lat="45.11637" lon="5.55172">
        <ele>1227.74</ele>
        <time>2013-10-01T17:44:29Z</time>
      </trkpt>
      <trkpt lat="45.11643" lon="5.55191">
        <ele>1224.38</ele>
        <time>2013-10-01T17:44:43Z</time>
      </trkpt>
      <trkpt lat="45.11648" lon="5.55214">
        <ele>1222.45</ele>
        <time>2013-10-01T17:45:00Z</time>
      </trkpt>
      <trkpt lat="45.11657" lon="5.55232">
        <ele>1221.01</ele>
        <time>2013-10-01T17:45:15Z</time>
      </trkpt>
      <trkpt lat="45.11666" lon="5.55248">
        <ele>1219.57</ele>
        <time>2013-10-01T17:45:30Z</time>
      </trkpt>
      <trkpt lat="45.11677" lon="5.55258">
        <ele>1220.05</ele>
        <time>2013-10-01T17:45:45Z</time>
      </trkpt>
      <trkpt lat="45.11679" lon="5.55259">
        <ele>1220.05</ele>
        <time>2013-10-01T17:45:47Z</time>
      </trkpt>
      <trkpt lat="45.11691" lon="5.55263">
        <ele>1220.05</ele>
        <time>2013-10-01T17:45:59Z</time>
      </trkpt>
      <trkpt lat="45.11701" lon="5.55265">
        <ele>1221.01</ele>
        <time>2013-10-01T17:46:10Z</time>
      </trkpt>
      <trkpt lat="45.11711" lon="5.55263">
        <ele>1221.49</ele>
        <time>2013-10-01T17:46:21Z</time>
      </trkpt>
      <trkpt lat="45.11723" lon="5.55265">
        <ele>1221.97</ele>
        <time>2013-10-01T17:46:31Z</time>
      </trkpt>
      <trkpt lat="45.11736" lon="5.55263">
        <ele>1222.93</ele>
        <time>2013-10-01T17:46:44Z</time>
      </trkpt>
      <trkpt lat="45.11748" lon="5.55254">
        <ele>1221.49</ele>
        <time>2013-10-01T17:46:59Z</time>
      </trkpt>
      <trkpt lat="45.11755" lon="5.55249">
        <ele>1220.05</ele>
        <time>2013-10-01T17:47:06Z</time>
      </trkpt>
      <trkpt lat="45.11768" lon="5.55235">
        <ele>1219.09</ele>
        <time>2013-10-01T17:47:19Z</time>
      </trkpt>
      <trkpt lat="45.11783" lon="5.55223">
        <ele>1216.69</ele>
        <time>2013-10-01T17:47:34Z</time>
      </trkpt>
      <trkpt lat="45.11796" lon="5.55229">
        <ele>1215.72</ele>
        <time>2013-10-01T17:47:45Z</time>
      </trkpt>
      <trkpt lat="45.11799" lon="5.55247">
        <ele>1214.28</ele>
        <time>2013-10-01T17:47:58Z</time>
      </trkpt>
      <trkpt lat="45.11801" lon="5.55264">
        <ele>1213.8</ele>
        <time>2013-10-01T17:48:11Z</time>
      </trkpt>
      <trkpt lat="45.11803" lon="5.55272">
        <ele>1215.24</ele>
        <time>2013-10-01T17:48:19Z</time>
      </trkpt>
      <trkpt lat="45.11807" lon="5.55292">
        <ele>1217.17</ele>
        <time>2013-10-01T17:48:34Z</time>
      </trkpt>
      <trkpt lat="45.11809" lon="5.55311">
        <ele>1217.17</ele>
        <time>2013-10-01T17:48:46Z</time>
      </trkpt>
      <trkpt lat="45.11812" lon="5.55327">
        <ele>1217.17</ele>
        <time>2013-10-01T17:48:59Z</time>
      </trkpt>
      <trkpt lat="45.11817" lon="5.55353">
        <ele>1217.65</ele>
        <time>2013-10-01T17:49:10Z</time>
      </trkpt>
      <trkpt lat="45.11826" lon="5.55368">
        <ele>1216.21</ele>
        <time>2013-10-01T17:49:24Z</time>
      </trkpt>
      <trkpt lat="45.11828" lon="5.55372">
        <ele>1216.21</ele>
        <time>2013-10-01T17:49:27Z</time>
      </trkpt>
      <trkpt lat="45.11837" lon="5.55383">
        <ele>1216.21</ele>
        <time>2013-10-01T17:49:37Z</time>
      </trkpt>
      <trkpt lat="45.11845" lon="5.55396">
        <ele>1215.72</ele>
        <time>2013-10-01T17:49:47Z</time>
      </trkpt>
      <trkpt lat="45.11858" lon="5.55413">
        <ele>1214.76</ele>
        <time>2013-10-01T17:50:03Z</time>
      </trkpt>
      <trkpt lat="45.11867" lon="5.55427">
        <ele>1213.8</ele>
        <time>2013-10-01T17:50:14Z</time>
      </trkpt>
      <trkpt lat="45.11879" lon="5.55441">
        <ele>1211.4</ele>
        <time>2013-10-01T17:50:28Z</time>
      </trkpt>
      <trkpt lat="45.11886" lon="5.55457">
        <ele>1209.48</ele>
        <time>2013-10-01T17:50:42Z</time>
      </trkpt>
      <trkpt lat="45.11893" lon="5.55475">
        <ele>1207.55</ele>
        <time>2013-10-01T17:50:56Z</time>
      </trkpt>
      <trkpt lat="45.11898" lon="5.55492">
        <ele>1205.63</ele>
        <time>2013-10-01T17:51:12Z</time>
      </trkpt>
      <trkpt lat="45.11904" lon="5.55514">
        <ele>1204.19</ele>
        <time>2013-10-01T17:51:26Z</time>
      </trkpt>
      <trkpt lat="45.11912" lon="5.55539">
        <ele>1202.27</ele>
        <time>2013-10-01T17:51:39Z</time>
      </trkpt>
      <trkpt lat="45.11919" lon="5.55559">
        <ele>1201.79</ele>
        <time>2013-10-01T17:51:54Z</time>
      </trkpt>
      <trkpt lat="45.11928" lon="5.55577">
        <ele>1200.34</ele>
        <time>2013-10-01T17:52:10Z</time>
      </trkpt>
      <trkpt lat="45.11936" lon="5.55597">
        <ele>1199.38</ele>
        <time>2013-10-01T17:52:23Z</time>
      </trkpt>
      <trkpt lat="45.11944" lon="5.55619">
        <ele>1198.42</ele>
        <time>2013-10-01T17:52:37Z</time>
      </trkpt>
      <trkpt lat="45.11951" lon="5.55642">
        <ele>1198.42</ele>
        <time>2013-10-01T17:52:49Z</time>
      </trkpt>
      <trkpt lat="45.11956" lon="5.55665">
        <ele>1197.46</ele>
        <time>2013-10-01T17:53:06Z</time>
      </trkpt>
      <trkpt lat="45.11958" lon="5.5569">
        <ele>1195.06</ele>
        <time>2013-10-01T17:53:23Z</time>
      </trkpt>
      <trkpt lat="45.11969" lon="5.55707">
        <ele>1194.58</ele>
        <time>2013-10-01T17:53:38Z</time>
      </trkpt>
      <trkpt lat="45.11971" lon="5.55709">
        <ele>1194.58</ele>
        <time>2013-10-01T17:53:41Z</time>
      </trkpt>
      <trkpt lat="45.11985" lon="5.55718">
        <ele>1193.13</ele>
        <time>2013-10-01T17:53:56Z</time>
      </trkpt>
      <trkpt lat="45.11993" lon="5.5573">
        <ele>1192.65</ele>
        <time>2013-10-01T17:54:07Z</time>
      </trkpt>
      <trkpt lat="45.11993" lon="5.5573">
        <ele>1192.65</ele>
        <time>2013-10-01T17:54:08Z</time>
      </trkpt>
      <trkpt lat="45.11996" lon="5.55732">
        <ele>1192.17</ele>
        <time>2013-10-01T17:54:11Z</time>
      </trkpt>
      <trkpt lat="45.12009" lon="5.55745">
        <ele>1191.69</ele>
        <time>2013-10-01T17:54:24Z</time>
      </trkpt>
      <trkpt lat="45.12019" lon="5.5576">
        <ele>1190.73</ele>
        <time>2013-10-01T17:54:38Z</time>
      </trkpt>
      <trkpt lat="45.12033" lon="5.55775">
        <ele>1190.25</ele>
        <time>2013-10-01T17:54:51Z</time>
      </trkpt>
      <trkpt lat="45.12046" lon="5.5579">
        <ele>1189.29</ele>
        <time>2013-10-01T17:55:06Z</time>
      </trkpt>
      <trkpt lat="45.12049" lon="5.55794">
        <ele>1189.29</ele>
        <time>2013-10-01T17:55:09Z</time>
      </trkpt>
      <trkpt lat="45.12059" lon="5.55798">
        <ele>1188.81</ele>
        <time>2013-10-01T17:55:20Z</time>
      </trkpt>
      <trkpt lat="45.12071" lon="5.55791">
        <ele>1188.81</ele>
        <time>2013-10-01T17:55:31Z</time>
      </trkpt>
      <trkpt lat="45.12083" lon="5.55784">
        <ele>1188.81</ele>
        <time>2013-10-01T17:55:43Z</time>
      </trkpt>
      <trkpt lat="45.12092" lon="5.55771">
        <ele>1188.33</ele>
        <time>2013-10-01T17:55:56Z</time>
      </trkpt>
      <trkpt lat="45.12105" lon="5.55746">
        <ele>1187.85</ele>
        <time>2013-10-01T17:56:10Z</time>
      </trkpt>
      <trkpt lat="45.12114" lon="5.55726">
        <ele>1186.4</ele>
        <time>2013-10-01T17:56:26Z</time>
      </trkpt>
      <trkpt lat="45.12124" lon="5.55718">
        <ele>1186.4</ele>
        <time>2013-10-01T17:56:38Z</time>
      </trkpt>
      <trkpt lat="45.12137" lon="5.55702">
        <ele>1187.85</ele>
        <time>2013-10-01T17:56:51Z</time>
      </trkpt>
      <trkpt lat="45.12155" lon="5.55688">
        <ele>1186.4</ele>
        <time>2013-10-01T17:57:08Z</time>
      </trkpt>
      <trkpt lat="45.12163" lon="5.55678">
        <ele>1185.44</ele>
        <time>2013-10-01T17:57:15Z</time>
      </trkpt>
      <trkpt lat="45.12174" lon="5.55661">
        <ele>1184.48</ele>
        <time>2013-10-01T17:57:29Z</time>
      </trkpt>
      <trkpt lat="45.12186" lon="5.55649">
        <ele>1184</ele>
        <time>2013-10-01T17:57:43Z</time>
      </trkpt>
      <trkpt lat="45.12187" lon="5.55648">
        <ele>1183.52</ele>
        <time>2013-10-01T17:57:44Z</time>
      </trkpt>
      <trkpt lat="45.12197" lon="5.55636">
        <ele>1183.04</ele>
        <time>2013-10-01T17:57:56Z</time>
      </trkpt>
      <trkpt lat="45.12209" lon="5.55628">
        <ele>1183.04</ele>
        <time>2013-10-01T17:58:08Z</time>
      </trkpt>
      <trkpt lat="45.12222" lon="5.55619">
        <ele>1183.04</ele>
        <time>2013-10-01T17:58:22Z</time>
      </trkpt>
      <trkpt lat="45.12234" lon="5.55615">
        <ele>1184</ele>
        <time>2013-10-01T17:58:32Z</time>
      </trkpt>
      <trkpt lat="45.12246" lon="5.55612">
        <ele>1184.48</ele>
        <time>2013-10-01T17:58:42Z</time>
      </trkpt>
      <trkpt lat="45.12255" lon="5.55608">
        <ele>1184.96</ele>
        <time>2013-10-01T17:58:51Z</time>
      </trkpt>
      <trkpt lat="45.1226" lon="5.55616">
        <ele>1186.4</ele>
        <time>2013-10-01T17:59:02Z</time>
      </trkpt>
      <trkpt lat="45.12254" lon="5.55627">
        <ele>1188.81</ele>
        <time>2013-10-01T17:59:16Z</time>
      </trkpt>
      <trkpt lat="45.12252" lon="5.55642">
        <ele>1190.73</ele>
        <time>2013-10-01T17:59:29Z</time>
      </trkpt>
      <trkpt lat="45.12249" lon="5.55652">
        <ele>1191.69</ele>
        <time>2013-10-01T17:59:43Z</time>
      </trkpt>
      <trkpt lat="45.12246" lon="5.55668">
        <ele>1193.61</ele>
        <time>2013-10-01T17:59:59Z</time>
      </trkpt>
      <trkpt lat="45.12244" lon="5.55682">
        <ele>1195.54</ele>
        <time>2013-10-01T18:00:10Z</time>
      </trkpt>
      <trkpt lat="45.12244" lon="5.55699">
        <ele>1196.5</ele>
        <time>2013-10-01T18:00:25Z</time>
      </trkpt>
      <trkpt lat="45.12251" lon="5.55713">
        <ele>1198.9</ele>
        <time>2013-10-01T18:00:38Z</time>
      </trkpt>
      <trkpt lat="45.12255" lon="5.5572">
        <ele>1198.9</ele>
        <time>2013-10-01T18:00:43Z</time>
      </trkpt>
      <trkpt lat="45.12264" lon="5.55731">
        <ele>1199.86</ele>
        <time>2013-10-01T18:00:55Z</time>
      </trkpt>
      <trkpt lat="45.12274" lon="5.55739">
        <ele>1200.82</ele>
        <time>2013-10-01T18:01:06Z</time>
      </trkpt>
      <trkpt lat="45.12284" lon="5.55743">
        <ele>1201.79</ele>
        <time>2013-10-01T18:01:16Z</time>
      </trkpt>
      <trkpt lat="45.1229" lon="5.55747">
        <ele>1202.27</ele>
        <time>2013-10-01T18:01:22Z</time>
      </trkpt>
      <trkpt lat="45.12296" lon="5.5575">
        <ele>1202.27</ele>
        <time>2013-10-01T18:01:29Z</time>
      </trkpt>
      <trkpt lat="45.12309" lon="5.55754">
        <ele>1202.75</ele>
        <time>2013-10-01T18:01:42Z</time>
      </trkpt>
      <trkpt lat="45.12312" lon="5.55757">
        <ele>1202.75</ele>
        <time>2013-10-01T18:01:45Z</time>
      </trkpt>
      <trkpt lat="45.12321" lon="5.55763">
        <ele>1201.3</ele>
        <time>2013-10-01T18:01:52Z</time>
      </trkpt>
      <trkpt lat="45.12334" lon="5.55769">
        <ele>1200.34</ele>
        <time>2013-10-01T18:02:04Z</time>
      </trkpt>
      <trkpt lat="45.12346" lon="5.55764">
        <ele>1198.9</ele>
        <time>2013-10-01T18:02:17Z</time>
      </trkpt>
      <trkpt lat="45.12359" lon="5.55753">
        <ele>1196.98</ele>
        <time>2013-10-01T18:02:30Z</time>
      </trkpt>
      <trkpt lat="45.12361" lon="5.55752">
        <ele>1196.98</ele>
        <time>2013-10-01T18:02:31Z</time>
      </trkpt>
      <trkpt lat="45.12379" lon="5.55748">
        <ele>1197.46</ele>
        <time>2013-10-01T18:02:46Z</time>
      </trkpt>
      <trkpt lat="45.12395" lon="5.55744">
        <ele>1197.46</ele>
        <time>2013-10-01T18:02:59Z</time>
      </trkpt>
      <trkpt lat="45.12398" lon="5.55744">
        <ele>1198.42</ele>
        <time>2013-10-01T18:03:02Z</time>
      </trkpt>
      <trkpt lat="45.1241" lon="5.5574">
        <ele>1199.38</ele>
        <time>2013-10-01T18:03:15Z</time>
      </trkpt>
      <trkpt lat="45.12423" lon="5.55733">
        <ele>1199.86</ele>
        <time>2013-10-01T18:03:27Z</time>
      </trkpt>
      <trkpt lat="45.12435" lon="5.55731">
        <ele>1200.82</ele>
        <time>2013-10-01T18:03:41Z</time>
      </trkpt>
      <trkpt lat="45.12442" lon="5.55731">
        <ele>1201.3</ele>
        <time>2013-10-01T18:03:51Z</time>
      </trkpt>
    </trkseg>
  </trk>
</gpx>